createdAt,value
2022-09-22T00:01:59.330Z,99.70
2022-09-22T00:07:03.039Z,99.80
2022-09-22T00:12:06.907Z,99.80
2022-09-22T00:17:12.348Z,99.80
2022-09-22T00:22:16.100Z,99.90
2022-09-22T00:27:19.765Z,99.90
2022-09-22T00:32:24.783Z,99.90
2022-09-22T00:37:28.526Z,99.90
2022-09-22T00:42:32.605Z,99.90
2022-09-22T00:47:41.923Z,99.90
2022-09-22T00:52:50.160Z,99.90
2022-09-22T00:57:58.971Z,99.90
2022-09-22T01:03:08.484Z,99.90
2022-09-22T01:08:14.675Z,99.90
2022-09-22T01:13:26.421Z,99.90
2022-09-22T01:18:43.065Z,99.90
2022-09-22T01:24:25.719Z,99.90
2022-09-22T01:29:51.650Z,99.90
2022-09-22T01:35:04.007Z,99.90
2022-09-22T01:40:14.234Z,99.90
2022-09-22T01:45:21.570Z,99.90
2022-09-22T01:50:31.209Z,99.90
2022-09-22T01:55:38.681Z,99.90
2022-09-22T02:00:47.894Z,99.90
2022-09-22T02:05:58.019Z,99.90
2022-09-22T02:11:09.831Z,99.90
2022-09-22T02:16:16.083Z,99.90
2022-09-22T02:21:22.954Z,99.90
2022-09-22T02:26:29.605Z,99.90
2022-09-22T02:31:37.290Z,99.90
2022-09-22T02:36:51.883Z,99.90
2022-09-22T02:42:09.882Z,99.90
2022-09-22T02:47:18.484Z,99.90
2022-09-22T02:52:25.270Z,99.90
2022-09-22T02:57:28.962Z,99.90
2022-09-22T03:02:32.565Z,99.90
2022-09-22T03:07:37.518Z,99.90
2022-09-22T03:13:02.472Z,99.90
2022-09-22T03:18:06.458Z,99.90
2022-09-22T03:23:11.621Z,99.90
2022-09-22T03:28:15.441Z,99.90
2022-09-22T03:33:19.031Z,99.90
2022-09-22T03:38:24.005Z,99.90
2022-09-22T03:43:27.677Z,99.90
2022-09-22T03:48:32.214Z,99.90
2022-09-22T03:53:38.008Z,99.90
2022-09-22T03:58:42.341Z,99.90
2022-09-22T04:03:46.605Z,99.90
2022-09-22T04:08:51.714Z,99.90
2022-09-22T04:13:55.418Z,99.90
2022-09-22T04:18:59.140Z,99.90
2022-09-22T04:24:07.598Z,99.90
2022-09-22T04:29:11.254Z,99.90
2022-09-22T04:34:15.160Z,99.90
2022-09-22T04:39:23.695Z,99.90
2022-09-22T04:44:27.646Z,99.90
2022-09-22T04:49:31.292Z,99.90
2022-09-22T04:54:36.394Z,99.90
2022-09-22T04:59:40.036Z,99.90
2022-09-22T05:04:43.943Z,99.90
2022-09-22T05:09:49.078Z,99.90
2022-09-22T05:14:52.767Z,99.90
2022-09-22T05:19:56.361Z,99.90
2022-09-22T05:25:01.403Z,99.90
2022-09-22T05:30:06.358Z,99.90
2022-09-22T05:35:10.737Z,99.90
2022-09-22T05:40:16.704Z,99.90
2022-09-22T05:45:21.676Z,99.90
2022-09-22T05:50:25.425Z,99.90
2022-09-22T05:55:30.506Z,99.90
2022-09-22T06:00:34.380Z,99.90
2022-09-22T06:05:39.484Z,99.90
2022-09-22T06:10:49.035Z,99.90
2022-09-22T06:15:52.746Z,99.90
2022-09-22T06:20:56.642Z,99.90
2022-09-22T06:26:01.695Z,99.90
2022-09-22T06:31:05.347Z,99.90
2022-09-22T06:36:10.278Z,99.90
2022-09-22T06:41:15.293Z,99.90
2022-09-22T06:46:20.560Z,99.90
2022-09-22T06:51:25.468Z,99.90
2022-09-22T06:56:33.139Z,99.90
2022-09-22T07:01:38.149Z,99.90
2022-09-22T07:06:42.724Z,99.90
2022-09-22T07:11:49.288Z,99.90
2022-09-22T07:16:55.324Z,99.90
2022-09-22T07:21:59.808Z,99.90
2022-09-22T07:27:07.028Z,99.90
2022-09-22T07:32:10.854Z,99.90
2022-09-22T07:37:15.526Z,99.90
2022-09-22T07:42:20.649Z,99.90
2022-09-22T07:47:38.281Z,99.90
2022-09-22T07:52:41.981Z,99.90
2022-09-22T07:57:53.546Z,99.90
2022-09-22T08:02:58.063Z,99.90
2022-09-22T08:08:03.696Z,99.90
2022-09-22T08:13:09.994Z,99.90
2022-09-22T08:18:14.357Z,99.90
2022-09-22T08:23:18.073Z,99.90
2022-09-22T08:28:23.186Z,99.90
2022-09-22T08:33:27.202Z,99.90
2022-09-22T08:38:32.490Z,99.90
2022-09-22T08:43:46.573Z,99.90
2022-09-22T08:49:09.200Z,99.90
2022-09-22T08:54:12.907Z,99.90
2022-09-22T08:59:23.070Z,99.90
2022-09-22T09:05:00.492Z,99.90
2022-09-22T09:10:21.189Z,99.90
2022-09-22T09:15:39.712Z,99.90
2022-09-22T09:20:47.162Z,98.30
2022-09-22T09:25:54.365Z,97.20
2022-09-22T09:31:07.994Z,91.90
2022-09-22T09:41:31.400Z,95.40
2022-09-22T09:46:52.796Z,93.10
2022-09-22T09:52:06.960Z,91.90
2022-09-22T09:57:12.834Z,91.20
2022-09-22T10:02:25.228Z,89.40
2022-09-22T10:12:39.955Z,85.80
2022-09-22T10:17:45.173Z,81.30
2022-09-22T10:22:49.526Z,78.40
2022-09-22T10:28:06.986Z,78.60
2022-09-22T10:33:20.536Z,77.40
2022-09-22T10:38:27.125Z,75.20
2022-09-22T10:43:38.187Z,73.50
2022-09-22T10:48:49.103Z,71.90
2022-09-22T10:54:11.554Z,71.30
2022-09-22T10:59:32.581Z,68.50
2022-09-22T11:04:51.510Z,70.20
2022-09-22T11:10:35.741Z,65.90
2022-09-22T11:16:02.588Z,67.20
2022-09-22T11:21:20.172Z,66.80
2022-09-22T11:26:37.322Z,65.40
2022-09-22T11:31:47.334Z,63.10
2022-09-22T11:36:58.393Z,64.30
2022-09-22T11:42:10.441Z,64.60
2022-09-22T11:47:38.167Z,65.50
2022-09-22T11:53:10.332Z,62.80
2022-09-22T11:58:18.037Z,64.20
2022-09-22T12:03:27.967Z,62.20
2022-09-22T12:08:38.809Z,62.70
2022-09-22T12:13:45.914Z,61.80
2022-09-22T12:18:55.368Z,61.80
2022-09-22T12:24:04.469Z,60.90
2022-09-22T12:29:23.614Z,60.20
2022-09-22T12:34:30.374Z,60.40
2022-09-22T12:39:41.727Z,63.50
2022-09-22T12:44:50.042Z,61.40
2022-09-22T12:49:58.566Z,59.10
2022-09-22T12:55:19.620Z,61.00
2022-09-22T13:00:34.212Z,59.60
2022-09-22T13:05:46.873Z,60.80
2022-09-22T13:10:58.734Z,60.20
2022-09-22T13:16:03.907Z,59.60
2022-09-22T13:21:22.792Z,60.90
2022-09-22T13:26:29.657Z,60.40
2022-09-22T13:31:44.549Z,61.20
2022-09-22T13:36:49.262Z,61.60
2022-09-22T13:41:58.812Z,62.10
2022-09-22T13:47:06.313Z,62.60
2022-09-22T13:52:16.248Z,62.10
2022-09-22T13:57:24.882Z,62.60
2022-09-22T14:02:32.445Z,64.00
2022-09-22T14:07:55.332Z,63.10
2022-09-22T14:13:03.750Z,64.00
2022-09-22T14:18:14.554Z,63.80
2022-09-22T14:23:23.938Z,63.60
2022-09-22T14:28:32.619Z,63.80
2022-09-22T14:33:36.381Z,63.80
2022-09-22T14:38:46.068Z,63.50
2022-09-22T14:43:55.158Z,64.70
2022-09-22T14:48:58.767Z,64.60
2022-09-22T14:54:05.770Z,64.10
2022-09-22T14:59:35.868Z,64.40
2022-09-22T15:04:42.190Z,63.70
2022-09-22T15:09:46.027Z,64.70
2022-09-22T15:14:59.591Z,64.90
2022-09-22T15:20:03.256Z,65.60
2022-09-22T15:25:07.585Z,65.90
2022-09-22T15:30:16.332Z,65.20
2022-09-22T15:35:20.906Z,65.10
2022-09-22T15:40:24.675Z,65.40
2022-09-22T15:45:32.592Z,65.00
2022-09-22T15:50:36.696Z,65.70
2022-09-22T15:55:40.416Z,65.50
2022-09-22T16:00:45.789Z,65.80
2022-09-22T16:05:57.150Z,66.10
2022-09-22T16:11:05.272Z,66.10
2022-09-22T16:16:11.407Z,66.50
2022-09-22T16:21:22.786Z,66.70
2022-09-22T16:26:28.438Z,66.60
2022-09-22T16:31:33.999Z,66.70
2022-09-22T16:36:39.821Z,67.20
2022-09-22T16:41:46.571Z,67.40
2022-09-22T16:46:51.700Z,67.60
2022-09-22T16:51:55.579Z,68.30
2022-09-22T16:56:59.278Z,69.30
2022-09-22T17:02:04.679Z,70.30
2022-09-22T17:07:08.384Z,71.10
2022-09-22T17:12:12.150Z,71.80
2022-09-22T17:17:17.237Z,72.70
2022-09-22T17:22:22.253Z,73.60
2022-09-22T17:27:26.311Z,74.30
2022-09-22T17:32:31.703Z,75.20
2022-09-22T17:37:37.704Z,76.10
2022-09-22T17:42:41.475Z,76.80
2022-09-22T17:48:04.031Z,77.70
2022-09-22T17:53:26.526Z,78.60
2022-09-22T17:58:30.151Z,79.20
2022-09-22T18:03:35.189Z,80.80
2022-09-22T18:08:44.707Z,80.90
2022-09-22T18:13:50.833Z,81.60
2022-09-22T18:18:55.983Z,82.60
2022-09-22T18:23:59.932Z,83.60
2022-09-22T18:29:04.375Z,84.30
2022-09-22T18:34:09.782Z,85.80
2022-09-22T18:39:14.256Z,85.80
2022-09-22T18:44:18.487Z,86.30
2022-09-22T18:49:23.732Z,86.70
2022-09-22T18:54:29.997Z,87.60
2022-09-22T18:59:33.874Z,88.10
2022-09-22T19:04:39.695Z,88.60
2022-09-22T19:09:44.466Z,89.00
2022-09-22T19:14:48.202Z,89.40
2022-09-22T19:19:53.322Z,89.80
2022-09-22T19:24:57.627Z,90.10
2022-09-22T19:30:01.369Z,90.40
2022-09-22T19:35:08.667Z,90.50
2022-09-22T19:40:18.603Z,90.70
2022-09-22T19:45:23.880Z,90.80
2022-09-22T19:50:29.030Z,91.00
2022-09-22T19:55:33.084Z,91.10
2022-09-22T20:00:37.177Z,91.40
2022-09-22T20:05:42.659Z,91.60
2022-09-22T20:10:48.717Z,91.70
2022-09-22T20:15:52.592Z,91.90
2022-09-22T20:21:02.670Z,91.90
2022-09-22T20:26:10.924Z,92.10
2022-09-22T20:31:16.638Z,92.20
2022-09-22T20:36:21.773Z,92.30
2022-09-22T20:41:25.497Z,92.50
2022-09-22T20:46:29.187Z,92.60
2022-09-22T20:51:35.223Z,92.70
2022-09-22T20:56:42.701Z,92.80
2022-09-22T21:01:47.473Z,92.90
2022-09-22T21:06:52.657Z,93.10
2022-09-22T21:11:56.827Z,93.20
2022-09-22T21:17:06.393Z,93.40
2022-09-22T21:22:11.476Z,93.50
2022-09-22T21:27:50.938Z,93.60
2022-09-22T21:32:52.725Z,93.70
2022-09-22T21:37:57.747Z,93.80
2022-09-22T21:43:06.650Z,93.90
2022-09-22T21:48:11.313Z,93.90
2022-09-22T21:53:16.402Z,94.10
2022-09-22T21:58:20.234Z,94.30
2022-09-22T22:03:35.907Z,94.40
2022-09-22T22:08:44.121Z,94.50
2022-09-22T22:13:47.999Z,94.60
2022-09-22T22:18:52.362Z,94.70
2022-09-22T22:24:20.093Z,94.80
2022-09-22T22:29:26.086Z,94.90
2022-09-22T22:34:29.864Z,94.90
2022-09-22T22:39:34.873Z,95.00
2022-09-22T22:44:38.561Z,95.10
2022-09-22T22:49:42.232Z,95.10
2022-09-22T22:54:47.238Z,95.20
2022-09-22T22:59:50.847Z,95.20
2022-09-22T23:04:54.598Z,95.30
2022-09-22T23:10:07.098Z,95.40
2022-09-22T23:15:11.334Z,95.40
2022-09-22T23:20:16.943Z,95.40
2022-09-22T23:25:23.712Z,95.50
2022-09-22T23:30:27.432Z,95.50
2022-09-22T23:35:31.231Z,95.60
2022-09-22T23:40:36.349Z,95.70
2022-09-22T23:45:40.606Z,95.70
2022-09-22T23:50:45.741Z,95.70
2022-09-22T23:55:51.604Z,95.70
